sensor_id;sensor_type;location;lat;lon;timestamp;temperature;humidity
60473;DHT22;46318;52.716;6.444;2022-12-18T00:00:07;-2.80;99.90
60473;DHT22;46318;52.716;6.444;2022-12-18T00:02:33;-2.80;99.90
60473;DHT22;46318;52.716;6.444;2022-12-18T00:04:59;-2.80;99.90
60473;DHT22;46318;52.716;6.444;2022-12-18T00:07:25;-2.80;99.90
60473;DHT22;46318;52.716;6.444;2022-12-18T00:09:50;-2.80;99.90
60473;DHT22;46318;52.716;6.444;2022-12-18T00:12:16;-2.80;99.90
60473;DHT22;46318;52.716;6.444;2022-12-18T00:14:42;-2.80;99.90
60473;DHT22;46318;52.716;6.444;2022-12-18T00:17:09;-2.80;99.90
60473;DHT22;46318;52.716;6.444;2022-12-18T00:19:35;-2.80;99.90
60473;DHT22;46318;52.716;6.444;2022-12-18T00:22:00;-2.80;99.90
60473;DHT22;46318;52.716;6.444;2022-12-18T00:24:26;-2.80;99.90
60473;DHT22;46318;52.716;6.444;2022-12-18T00:26:52;-2.80;99.90
60473;DHT22;46318;52.716;6.444;2022-12-18T00:29:18;-2.90;99.90
60473;DHT22;46318;52.716;6.444;2022-12-18T00:31:44;-2.80;99.90
60473;DHT22;46318;52.716;6.444;2022-12-18T00:34:11;-2.80;99.90
60473;DHT22;46318;52.716;6.444;2022-12-18T00:36:38;-2.90;99.90
60473;DHT22;46318;52.716;6.444;2022-12-18T00:39:05;-2.90;99.90
60473;DHT22;46318;52.716;6.444;2022-12-18T00:41:31;-2.90;99.90
60473;DHT22;46318;52.716;6.444;2022-12-18T00:44:16;-2.90;99.90
60473;DHT22;46318;52.716;6.444;2022-12-18T00:46:43;-2.90;99.90
60473;DHT22;46318;52.716;6.444;2022-12-18T00:49:09;-2.90;99.90
60473;DHT22;46318;52.716;6.444;2022-12-18T00:51:38;-3.00;99.90
60473;DHT22;46318;52.716;6.444;2022-12-18T00:54:04;-3.00;99.90
60473;DHT22;46318;52.716;6.444;2022-12-18T00:56:30;-3.00;99.90
60473;DHT22;46318;52.716;6.444;2022-12-18T00:58:56;-3.00;99.90
60473;DHT22;46318;52.716;6.444;2022-12-18T01:01:21;-3.00;99.90
60473;DHT22;46318;52.716;6.444;2022-12-18T01:03:47;-3.00;99.90
60473;DHT22;46318;52.716;6.444;2022-12-18T01:06:14;-3.00;99.90
60473;DHT22;46318;52.716;6.444;2022-12-18T01:08:40;-3.00;99.90
60473;DHT22;46318;52.716;6.444;2022-12-18T01:11:07;-3.00;99.90
60473;DHT22;46318;52.716;6.444;2022-12-18T01:13:34;-3.10;99.90
60473;DHT22;46318;52.716;6.444;2022-12-18T01:16:00;-3.10;99.90
60473;DHT22;46318;52.716;6.444;2022-12-18T01:18:25;-3.10;99.90
60473;DHT22;46318;52.716;6.444;2022-12-18T01:20:51;-3.10;99.90
60473;DHT22;46318;52.716;6.444;2022-12-18T01:23:17;-3.10;99.90
60473;DHT22;46318;52.716;6.444;2022-12-18T01:25:43;-3.20;99.90
60473;DHT22;46318;52.716;6.444;2022-12-18T01:28:11;-3.20;99.90
60473;DHT22;46318;52.716;6.444;2022-12-18T01:30:37;-3.20;99.90
60473;DHT22;46318;52.716;6.444;2022-12-18T01:33:06;-3.20;99.90
60473;DHT22;46318;52.716;6.444;2022-12-18T01:35:32;-3.30;99.90
60473;DHT22;46318;52.716;6.444;2022-12-18T01:37:57;-3.30;99.90
60473;DHT22;46318;52.716;6.444;2022-12-18T01:40:23;-3.30;99.90
60473;DHT22;46318;52.716;6.444;2022-12-18T01:42:52;-3.30;99.90
60473;DHT22;46318;52.716;6.444;2022-12-18T01:47:54;-3.40;99.90
60473;DHT22;46318;52.716;6.444;2022-12-18T01:50:27;-3.40;99.90
60473;DHT22;46318;52.716;6.444;2022-12-18T01:55:27;-3.50;99.90
60473;DHT22;46318;52.716;6.444;2022-12-18T01:57:56;-3.50;99.90
60473;DHT22;46318;52.716;6.444;2022-12-18T02:00:23;-3.50;99.90
60473;DHT22;46318;52.716;6.444;2022-12-18T02:02:50;-3.60;99.90
60473;DHT22;46318;52.716;6.444;2022-12-18T02:05:26;-3.60;99.90
60473;DHT22;46318;52.716;6.444;2022-12-18T02:08:00;-3.60;99.90
60473;DHT22;46318;52.716;6.444;2022-12-18T02:13:12;-3.70;99.90
60473;DHT22;46318;52.716;6.444;2022-12-18T02:18:43;-3.80;99.90
60473;DHT22;46318;52.716;6.444;2022-12-18T02:21:14;-3.80;99.90
60473;DHT22;46318;52.716;6.444;2022-12-18T02:26:48;-3.80;99.90
60473;DHT22;46318;52.716;6.444;2022-12-18T02:32:27;-3.90;99.90
60473;DHT22;46318;52.716;6.444;2022-12-18T02:34:56;-3.90;99.90
60473;DHT22;46318;52.716;6.444;2022-12-18T02:37:22;-4.00;99.90
60473;DHT22;46318;52.716;6.444;2022-12-18T02:39:49;-4.00;99.90
60473;DHT22;46318;52.716;6.444;2022-12-18T02:42:16;-4.00;99.90
60473;DHT22;46318;52.716;6.444;2022-12-18T02:44:46;-4.00;99.90
60473;DHT22;46318;52.716;6.444;2022-12-18T02:47:13;-4.10;99.90
60473;DHT22;46318;52.716;6.444;2022-12-18T02:58:04;-4.20;99.90
60473;DHT22;46318;52.716;6.444;2022-12-18T03:00:36;-4.20;99.90
60473;DHT22;46318;52.716;6.444;2022-12-18T03:05:58;-4.30;99.90
60473;DHT22;46318;52.716;6.444;2022-12-18T03:08:30;-4.30;99.90
60473;DHT22;46318;52.716;6.444;2022-12-18T03:10:59;-4.30;99.90
60473;DHT22;46318;52.716;6.444;2022-12-18T03:13:32;-4.40;99.90
60473;DHT22;46318;52.716;6.444;2022-12-18T03:16:00;-4.40;99.90
60473;DHT22;46318;52.716;6.444;2022-12-18T03:18:31;-4.40;99.90
60473;DHT22;46318;52.716;6.444;2022-12-18T03:21:00;-4.40;99.90
60473;DHT22;46318;52.716;6.444;2022-12-18T03:23:29;-4.50;99.90
60473;DHT22;46318;52.716;6.444;2022-12-18T03:26:02;-4.50;99.90
60473;DHT22;46318;52.716;6.444;2022-12-18T03:28:31;-4.60;99.90
60473;DHT22;46318;52.716;6.444;2022-12-18T03:31:00;-4.50;99.90
60473;DHT22;46318;52.716;6.444;2022-12-18T03:35:53;-4.60;99.90
60473;DHT22;46318;52.716;6.444;2022-12-18T03:38:19;-4.60;99.90
60473;DHT22;46318;52.716;6.444;2022-12-18T03:40:50;-4.60;99.90
60473;DHT22;46318;52.716;6.444;2022-12-18T03:43:24;-4.70;99.90
60473;DHT22;46318;52.716;6.444;2022-12-18T03:45:52;-4.70;99.90
60473;DHT22;46318;52.716;6.444;2022-12-18T03:48:31;-4.70;99.90
60473;DHT22;46318;52.716;6.444;2022-12-18T03:51:02;-4.70;99.90
60473;DHT22;46318;52.716;6.444;2022-12-18T03:56:08;-4.80;99.90
60473;DHT22;46318;52.716;6.444;2022-12-18T03:58:35;-4.80;99.90
60473;DHT22;46318;52.716;6.444;2022-12-18T04:01:05;-4.80;99.90
60473;DHT22;46318;52.716;6.444;2022-12-18T04:03:32;-4.80;99.90
60473;DHT22;46318;52.716;6.444;2022-12-18T04:05:59;-4.90;99.90
60473;DHT22;46318;52.716;6.444;2022-12-18T04:08:25;-4.90;99.90
60473;DHT22;46318;52.716;6.444;2022-12-18T04:10:51;-4.90;99.90
60473;DHT22;46318;52.716;6.444;2022-12-18T04:13:24;-4.90;99.90
60473;DHT22;46318;52.716;6.444;2022-12-18T04:15:53;-4.90;99.90
60473;DHT22;46318;52.716;6.444;2022-12-18T04:18:19;-4.90;99.90
60473;DHT22;46318;52.716;6.444;2022-12-18T04:20:45;-5.00;99.90
60473;DHT22;46318;52.716;6.444;2022-12-18T04:23:10;-5.00;99.90
60473;DHT22;46318;52.716;6.444;2022-12-18T04:25:36;-5.00;99.90
60473;DHT22;46318;52.716;6.444;2022-12-18T04:28:02;-5.00;99.90
60473;DHT22;46318;52.716;6.444;2022-12-18T04:30:28;-5.10;99.90
60473;DHT22;46318;52.716;6.444;2022-12-18T04:32:53;-5.10;99.90
60473;DHT22;46318;52.716;6.444;2022-12-18T04:35:19;-5.10;99.90
60473;DHT22;46318;52.716;6.444;2022-12-18T04:37:45;-5.10;99.90
60473;DHT22;46318;52.716;6.444;2022-12-18T04:40:11;-5.20;99.90
60473;DHT22;46318;52.716;6.444;2022-12-18T04:42:38;-5.20;99.90
60473;DHT22;46318;52.716;6.444;2022-12-18T04:45:04;-5.20;99.90
60473;DHT22;46318;52.716;6.444;2022-12-18T04:47:31;-5.20;99.90
60473;DHT22;46318;52.716;6.444;2022-12-18T04:49:56;-5.20;99.90
60473;DHT22;46318;52.716;6.444;2022-12-18T04:52:22;-5.20;99.90
60473;DHT22;46318;52.716;6.444;2022-12-18T04:54:48;-5.20;99.90
60473;DHT22;46318;52.716;6.444;2022-12-18T04:57:13;-5.20;99.90
60473;DHT22;46318;52.716;6.444;2022-12-18T04:59:39;-5.30;99.90
60473;DHT22;46318;52.716;6.444;2022-12-18T05:02:05;-5.30;99.90
60473;DHT22;46318;52.716;6.444;2022-12-18T05:04:31;-5.30;99.90
60473;DHT22;46318;52.716;6.444;2022-12-18T05:06:57;-5.30;99.90
60473;DHT22;46318;52.716;6.444;2022-12-18T05:09:22;-5.30;99.90
60473;DHT22;46318;52.716;6.444;2022-12-18T05:11:48;-5.30;99.90
60473;DHT22;46318;52.716;6.444;2022-12-18T05:14:14;-5.30;99.90
60473;DHT22;46318;52.716;6.444;2022-12-18T05:16:40;-5.30;99.90
60473;DHT22;46318;52.716;6.444;2022-12-18T05:19:05;-5.30;99.90
60473;DHT22;46318;52.716;6.444;2022-12-18T05:21:31;-5.40;99.90
60473;DHT22;46318;52.716;6.444;2022-12-18T05:23:57;-5.40;99.90
60473;DHT22;46318;52.716;6.444;2022-12-18T05:26:23;-5.40;99.90
60473;DHT22;46318;52.716;6.444;2022-12-18T05:28:48;-5.40;99.90
60473;DHT22;46318;52.716;6.444;2022-12-18T05:31:14;-5.40;99.90
60473;DHT22;46318;52.716;6.444;2022-12-18T05:33:40;-5.40;99.90
60473;DHT22;46318;52.716;6.444;2022-12-18T05:36:06;-5.40;99.90
60473;DHT22;46318;52.716;6.444;2022-12-18T05:38:34;-5.40;99.90
60473;DHT22;46318;52.716;6.444;2022-12-18T05:41:01;-5.50;99.90
60473;DHT22;46318;52.716;6.444;2022-12-18T05:43:28;-5.50;99.90
60473;DHT22;46318;52.716;6.444;2022-12-18T05:45:54;-5.40;99.90
60473;DHT22;46318;52.716;6.444;2022-12-18T05:48:20;-5.50;99.90
60473;DHT22;46318;52.716;6.444;2022-12-18T05:50:46;-5.50;99.90
60473;DHT22;46318;52.716;6.444;2022-12-18T05:53:17;-5.50;99.90
60473;DHT22;46318;52.716;6.444;2022-12-18T05:55:44;-5.60;99.90
60473;DHT22;46318;52.716;6.444;2022-12-18T05:58:11;-5.60;99.90
60473;DHT22;46318;52.716;6.444;2022-12-18T06:00:38;-5.60;99.90
60473;DHT22;46318;52.716;6.444;2022-12-18T06:03:08;-5.60;99.90
60473;DHT22;46318;52.716;6.444;2022-12-18T06:05:35;-5.60;99.90
60473;DHT22;46318;52.716;6.444;2022-12-18T06:08:06;-5.60;99.90
60473;DHT22;46318;52.716;6.444;2022-12-18T06:10:32;-5.60;99.90
60473;DHT22;46318;52.716;6.444;2022-12-18T06:12:58;-5.70;99.90
60473;DHT22;46318;52.716;6.444;2022-12-18T06:15:25;-5.70;99.90
60473;DHT22;46318;52.716;6.444;2022-12-18T06:17:50;-5.70;99.90
60473;DHT22;46318;52.716;6.444;2022-12-18T06:20:16;-5.70;99.90
60473;DHT22;46318;52.716;6.444;2022-12-18T06:22:42;-5.70;99.90
60473;DHT22;46318;52.716;6.444;2022-12-18T06:25:08;-5.70;99.90
60473;DHT22;46318;52.716;6.444;2022-12-18T06:27:34;-5.80;99.90
60473;DHT22;46318;52.716;6.444;2022-12-18T06:30:00;-5.80;99.90
60473;DHT22;46318;52.716;6.444;2022-12-18T06:32:32;-5.80;99.90
60473;DHT22;46318;52.716;6.444;2022-12-18T06:34:58;-5.80;99.90
60473;DHT22;46318;52.716;6.444;2022-12-18T06:37:24;-5.80;99.90
60473;DHT22;46318;52.716;6.444;2022-12-18T06:39:51;-5.80;99.90
60473;DHT22;46318;52.716;6.444;2022-12-18T06:42:18;-5.80;99.90
60473;DHT22;46318;52.716;6.444;2022-12-18T06:44:43;-5.90;99.90
60473;DHT22;46318;52.716;6.444;2022-12-18T06:47:10;-5.90;99.90
60473;DHT22;46318;52.716;6.444;2022-12-18T06:49:35;-5.90;99.90
60473;DHT22;46318;52.716;6.444;2022-12-18T06:52:01;-5.90;99.90
60473;DHT22;46318;52.716;6.444;2022-12-18T06:54:27;-5.90;99.90
60473;DHT22;46318;52.716;6.444;2022-12-18T06:56:53;-5.90;99.90
60473;DHT22;46318;52.716;6.444;2022-12-18T06:59:18;-5.90;99.90
60473;DHT22;46318;52.716;6.444;2022-12-18T07:01:44;-5.90;99.90
60473;DHT22;46318;52.716;6.444;2022-12-18T07:04:10;-5.90;99.90
60473;DHT22;46318;52.716;6.444;2022-12-18T07:06:36;-5.90;99.90
60473;DHT22;46318;52.716;6.444;2022-12-18T07:09:01;-5.90;99.90
60473;DHT22;46318;52.716;6.444;2022-12-18T07:11:27;-6.00;99.90
60473;DHT22;46318;52.716;6.444;2022-12-18T07:13:53;-6.00;99.90
60473;DHT22;46318;52.716;6.444;2022-12-18T07:16:20;-6.00;99.90
60473;DHT22;46318;52.716;6.444;2022-12-18T07:18:47;-6.00;99.90
60473;DHT22;46318;52.716;6.444;2022-12-18T07:21:14;-6.00;99.90
60473;DHT22;46318;52.716;6.444;2022-12-18T07:23:42;-6.00;99.90
60473;DHT22;46318;52.716;6.444;2022-12-18T07:26:12;-6.00;99.90
60473;DHT22;46318;52.716;6.444;2022-12-18T07:28:39;-6.00;99.90
60473;DHT22;46318;52.716;6.444;2022-12-18T07:31:06;-6.00;99.90
60473;DHT22;46318;52.716;6.444;2022-12-18T07:33:33;-6.00;99.90
60473;DHT22;46318;52.716;6.444;2022-12-18T07:35:59;-6.00;99.90
60473;DHT22;46318;52.716;6.444;2022-12-18T07:38:25;-6.00;99.90
60473;DHT22;46318;52.716;6.444;2022-12-18T07:40:51;-6.00;99.90
60473;DHT22;46318;52.716;6.444;2022-12-18T07:43:18;-6.00;99.90
60473;DHT22;46318;52.716;6.444;2022-12-18T07:45:44;-6.00;99.90
60473;DHT22;46318;52.716;6.444;2022-12-18T07:48:09;-6.00;99.90
60473;DHT22;46318;52.716;6.444;2022-12-18T07:50:36;-6.00;99.90
60473;DHT22;46318;52.716;6.444;2022-12-18T07:53:02;-6.00;99.90
60473;DHT22;46318;52.716;6.444;2022-12-18T07:55:30;-6.00;99.90
60473;DHT22;46318;52.716;6.444;2022-12-18T07:57:56;-5.90;99.90
60473;DHT22;46318;52.716;6.444;2022-12-18T08:00:22;-5.90;99.90
60473;DHT22;46318;52.716;6.444;2022-12-18T08:02:48;-5.90;99.90
60473;DHT22;46318;52.716;6.444;2022-12-18T08:05:14;-5.90;99.90
60473;DHT22;46318;52.716;6.444;2022-12-18T08:07:40;-5.90;99.90
60473;DHT22;46318;52.716;6.444;2022-12-18T08:10:06;-5.90;99.90
60473;DHT22;46318;52.716;6.444;2022-12-18T08:12:32;-5.90;99.90
60473;DHT22;46318;52.716;6.444;2022-12-18T08:14:58;-5.90;99.90
60473;DHT22;46318;52.716;6.444;2022-12-18T08:17:23;-5.90;99.90
60473;DHT22;46318;52.716;6.444;2022-12-18T08:19:49;-5.90;99.90
60473;DHT22;46318;52.716;6.444;2022-12-18T08:22:15;-5.90;99.90
60473;DHT22;46318;52.716;6.444;2022-12-18T08:24:40;-5.90;99.90
60473;DHT22;46318;52.716;6.444;2022-12-18T08:27:06;-5.90;99.90
60473;DHT22;46318;52.716;6.444;2022-12-18T08:29:32;-5.80;99.90
60473;DHT22;46318;52.716;6.444;2022-12-18T08:31:59;-5.80;99.90
60473;DHT22;46318;52.716;6.444;2022-12-18T08:34:25;-5.80;99.90
60473;DHT22;46318;52.716;6.444;2022-12-18T08:36:52;-5.80;99.90
60473;DHT22;46318;52.716;6.444;2022-12-18T08:39:17;-5.80;99.90
60473;DHT22;46318;52.716;6.444;2022-12-18T08:41:46;-5.80;99.90
60473;DHT22;46318;52.716;6.444;2022-12-18T08:44:32;-5.80;99.90
60473;DHT22;46318;52.716;6.444;2022-12-18T08:47:04;-5.80;99.90
60473;DHT22;46318;52.716;6.444;2022-12-18T08:49:30;-5.70;99.90
60473;DHT22;46318;52.716;6.444;2022-12-18T08:51:57;-5.70;99.90
60473;DHT22;46318;52.716;6.444;2022-12-18T08:54:23;-5.70;99.90
60473;DHT22;46318;52.716;6.444;2022-12-18T08:56:49;-5.70;99.90
60473;DHT22;46318;52.716;6.444;2022-12-18T08:59:16;-5.60;99.90
60473;DHT22;46318;52.716;6.444;2022-12-18T09:01:42;-5.50;99.90
60473;DHT22;46318;52.716;6.444;2022-12-18T09:04:11;-5.50;99.90
60473;DHT22;46318;52.716;6.444;2022-12-18T09:06:37;-5.40;99.90
60473;DHT22;46318;52.716;6.444;2022-12-18T09:09:04;-5.20;99.90
60473;DHT22;46318;52.716;6.444;2022-12-18T09:11:30;-5.20;99.90
60473;DHT22;46318;52.716;6.444;2022-12-18T09:13:58;-5.10;99.90
60473;DHT22;46318;52.716;6.444;2022-12-18T09:16:25;-5.00;99.90
60473;DHT22;46318;52.716;6.444;2022-12-18T09:18:51;-5.00;99.90
60473;DHT22;46318;52.716;6.444;2022-12-18T09:21:19;-5.00;99.90
60473;DHT22;46318;52.716;6.444;2022-12-18T09:23:49;-4.90;99.90
60473;DHT22;46318;52.716;6.444;2022-12-18T09:26:19;-4.80;99.90
60473;DHT22;46318;52.716;6.444;2022-12-18T09:28:45;-4.70;99.90
60473;DHT22;46318;52.716;6.444;2022-12-18T09:31:15;-4.60;99.90
60473;DHT22;46318;52.716;6.444;2022-12-18T09:33:43;-4.50;99.90
60473;DHT22;46318;52.716;6.444;2022-12-18T09:36:11;-4.50;99.90
60473;DHT22;46318;52.716;6.444;2022-12-18T09:38:38;-4.40;99.90
60473;DHT22;46318;52.716;6.444;2022-12-18T09:43:50;-4.30;99.90
60473;DHT22;46318;52.716;6.444;2022-12-18T09:46:18;-4.30;99.90
60473;DHT22;46318;52.716;6.444;2022-12-18T09:48:51;-4.30;99.90
60473;DHT22;46318;52.716;6.444;2022-12-18T09:53:47;-4.20;99.90
60473;DHT22;46318;52.716;6.444;2022-12-18T09:56:22;-4.20;99.90
60473;DHT22;46318;52.716;6.444;2022-12-18T09:58:53;-4.20;99.90
60473;DHT22;46318;52.716;6.444;2022-12-18T10:01:22;-4.10;99.90
60473;DHT22;46318;52.716;6.444;2022-12-18T10:03:49;-4.00;99.90
60473;DHT22;46318;52.716;6.444;2022-12-18T10:08:59;-4.00;99.90
60473;DHT22;46318;52.716;6.444;2022-12-18T10:16:37;-3.90;99.90
60473;DHT22;46318;52.716;6.444;2022-12-18T10:22:15;-3.80;99.90
60473;DHT22;46318;52.716;6.444;2022-12-18T10:27:22;-3.80;99.90
60473;DHT22;46318;52.716;6.444;2022-12-18T10:29:49;-3.80;99.90
60473;DHT22;46318;52.716;6.444;2022-12-18T10:32:19;-3.80;99.90
60473;DHT22;46318;52.716;6.444;2022-12-18T10:34:47;-3.70;99.90
60473;DHT22;46318;52.716;6.444;2022-12-18T10:37:20;-3.70;99.90
60473;DHT22;46318;52.716;6.444;2022-12-18T10:42:32;-3.70;99.90
60473;DHT22;46318;52.716;6.444;2022-12-18T10:45:03;-3.60;99.90
60473;DHT22;46318;52.716;6.444;2022-12-18T10:47:36;-3.60;99.90
60473;DHT22;46318;52.716;6.444;2022-12-18T10:50:02;-3.60;99.90
60473;DHT22;46318;52.716;6.444;2022-12-18T10:52:29;-3.50;99.90
60473;DHT22;46318;52.716;6.444;2022-12-18T10:54:57;-3.50;99.90
60473;DHT22;46318;52.716;6.444;2022-12-18T10:59:55;-3.40;99.90
60473;DHT22;46318;52.716;6.444;2022-12-18T11:02:33;-3.40;99.90
60473;DHT22;46318;52.716;6.444;2022-12-18T11:05:01;-3.40;99.90
60473;DHT22;46318;52.716;6.444;2022-12-18T11:07:46;-3.30;99.90
60473;DHT22;46318;52.716;6.444;2022-12-18T11:10:17;-3.30;99.90
60473;DHT22;46318;52.716;6.444;2022-12-18T11:12:44;-3.20;99.90
60473;DHT22;46318;52.716;6.444;2022-12-18T11:15:19;-3.20;99.90
60473;DHT22;46318;52.716;6.444;2022-12-18T11:17:47;-3.20;99.90
60473;DHT22;46318;52.716;6.444;2022-12-18T11:20:27;-3.20;99.90
60473;DHT22;46318;52.716;6.444;2022-12-18T11:23:05;-3.10;99.90
60473;DHT22;46318;52.716;6.444;2022-12-18T11:25:36;-3.10;99.90
60473;DHT22;46318;52.716;6.444;2022-12-18T11:28:25;-3.00;99.90
60473;DHT22;46318;52.716;6.444;2022-12-18T11:31:08;-3.00;99.90
60473;DHT22;46318;52.716;6.444;2022-12-18T11:36:44;-2.90;99.90
60473;DHT22;46318;52.716;6.444;2022-12-18T11:39:23;-2.90;99.90
60473;DHT22;46318;52.716;6.444;2022-12-18T11:42:12;-2.80;99.90
60473;DHT22;46318;52.716;6.444;2022-12-18T11:44:50;-2.80;99.90
60473;DHT22;46318;52.716;6.444;2022-12-18T11:49:51;-2.80;99.90
60473;DHT22;46318;52.716;6.444;2022-12-18T11:54:53;-2.70;99.90
60473;DHT22;46318;52.716;6.444;2022-12-18T11:57:34;-2.60;99.90
60473;DHT22;46318;52.716;6.444;2022-12-18T12:00:15;-2.60;99.90
60473;DHT22;46318;52.716;6.444;2022-12-18T12:13:39;-2.50;99.90
60473;DHT22;46318;52.716;6.444;2022-12-18T12:30:22;-2.20;99.90
60473;DHT22;46318;52.716;6.444;2022-12-18T12:36:10;-2.20;99.90
60473;DHT22;46318;52.716;6.444;2022-12-18T12:38:43;-2.10;99.90
60473;DHT22;46318;52.716;6.444;2022-12-18T12:41:17;-2.10;99.90
60473;DHT22;46318;52.716;6.444;2022-12-18T12:44:05;-2.00;99.90
60473;DHT22;46318;52.716;6.444;2022-12-18T12:46:34;-1.90;99.90
60473;DHT22;46318;52.716;6.444;2022-12-18T12:49:03;-1.90;99.90
60473;DHT22;46318;52.716;6.444;2022-12-18T12:51:35;-1.90;99.90
60473;DHT22;46318;52.716;6.444;2022-12-18T12:54:04;-1.80;99.90
60473;DHT22;46318;52.716;6.444;2022-12-18T12:56:36;-1.70;99.90
60473;DHT22;46318;52.716;6.444;2022-12-18T12:59:15;-1.70;99.90
60473;DHT22;46318;52.716;6.444;2022-12-18T13:04:44;-1.60;99.90
60473;DHT22;46318;52.716;6.444;2022-12-18T13:07:32;-1.60;99.90
60473;DHT22;46318;52.716;6.444;2022-12-18T13:12:56;-1.60;99.90
60473;DHT22;46318;52.716;6.444;2022-12-18T13:31:12;-1.40;99.90
60473;DHT22;46318;52.716;6.444;2022-12-18T13:36:41;-1.40;99.90
60473;DHT22;46318;52.716;6.444;2022-12-18T13:41:36;-1.30;99.90
60473;DHT22;46318;52.716;6.444;2022-12-18T13:46:56;-1.30;99.90
60473;DHT22;46318;52.716;6.444;2022-12-18T13:49:23;-1.30;99.90
60473;DHT22;46318;52.716;6.444;2022-12-18T13:52:17;-1.30;99.90
60473;DHT22;46318;52.716;6.444;2022-12-18T13:54:50;-1.20;99.90
60473;DHT22;46318;52.716;6.444;2022-12-18T13:57:27;-1.20;99.90
60473;DHT22;46318;52.716;6.444;2022-12-18T13:59:55;-1.20;99.90
60473;DHT22;46318;52.716;6.444;2022-12-18T14:02:22;-1.20;99.90
60473;DHT22;46318;52.716;6.444;2022-12-18T14:04:53;-1.20;99.90
60473;DHT22;46318;52.716;6.444;2022-12-18T14:07:24;-1.20;99.90
60473;DHT22;46318;52.716;6.444;2022-12-18T14:09:57;-1.20;99.90
60473;DHT22;46318;52.716;6.444;2022-12-18T14:12:27;-1.20;99.90
60473;DHT22;46318;52.716;6.444;2022-12-18T14:20:43;-1.10;99.90
60473;DHT22;46318;52.716;6.444;2022-12-18T14:25:54;-1.10;99.90
60473;DHT22;46318;52.716;6.444;2022-12-18T14:28:20;-1.10;99.90
60473;DHT22;46318;52.716;6.444;2022-12-18T14:30:49;-1.10;99.90
60473;DHT22;46318;52.716;6.444;2022-12-18T14:33:19;-1.10;99.90
60473;DHT22;46318;52.716;6.444;2022-12-18T14:35:57;-1.10;99.90
60473;DHT22;46318;52.716;6.444;2022-12-18T14:43:24;-1.10;99.90
60473;DHT22;46318;52.716;6.444;2022-12-18T14:45:51;-1.10;99.90
60473;DHT22;46318;52.716;6.444;2022-12-18T14:48:18;-1.10;99.90
60473;DHT22;46318;52.716;6.444;2022-12-18T14:50:54;-1.00;99.90
60473;DHT22;46318;52.716;6.444;2022-12-18T14:53:47;-1.00;99.90
60473;DHT22;46318;52.716;6.444;2022-12-18T14:56:24;-1.00;99.90
60473;DHT22;46318;52.716;6.444;2022-12-18T14:59:00;-1.00;99.90
60473;DHT22;46318;52.716;6.444;2022-12-18T15:01:36;-1.00;99.90
60473;DHT22;46318;52.716;6.444;2022-12-18T15:04:04;-1.00;99.90
60473;DHT22;46318;52.716;6.444;2022-12-18T15:06:40;-1.00;99.90
60473;DHT22;46318;52.716;6.444;2022-12-18T15:09:23;-1.00;99.90
60473;DHT22;46318;52.716;6.444;2022-12-18T15:11:55;-1.00;99.90
60473;DHT22;46318;52.716;6.444;2022-12-18T15:14:38;-1.00;99.90
60473;DHT22;46318;52.716;6.444;2022-12-18T15:17:21;-1.00;99.90
60473;DHT22;46318;52.716;6.444;2022-12-18T15:19:49;-1.00;99.90
60473;DHT22;46318;52.716;6.444;2022-12-18T15:22:28;-1.00;99.90
60473;DHT22;46318;52.716;6.444;2022-12-18T15:24:55;-1.00;99.90
60473;DHT22;46318;52.716;6.444;2022-12-18T15:27:35;-1.00;99.90
60473;DHT22;46318;52.716;6.444;2022-12-18T15:32:35;-1.00;99.90
60473;DHT22;46318;52.716;6.444;2022-12-18T15:37:38;-1.00;99.90
60473;DHT22;46318;52.716;6.444;2022-12-18T15:40:04;-1.00;99.90
60473;DHT22;46318;52.716;6.444;2022-12-18T15:42:30;-1.00;99.90
60473;DHT22;46318;52.716;6.444;2022-12-18T15:45:15;-1.00;99.90
60473;DHT22;46318;52.716;6.444;2022-12-18T15:47:41;-1.00;99.90
60473;DHT22;46318;52.716;6.444;2022-12-18T15:50:09;-1.10;99.90
60473;DHT22;46318;52.716;6.444;2022-12-18T15:52:41;-1.00;99.90
60473;DHT22;46318;52.716;6.444;2022-12-18T15:55:12;-1.10;99.90
60473;DHT22;46318;52.716;6.444;2022-12-18T15:57:58;-1.10;99.90
60473;DHT22;46318;52.716;6.444;2022-12-18T16:00:25;-1.10;99.90
60473;DHT22;46318;52.716;6.444;2022-12-18T16:03:03;-1.10;99.90
60473;DHT22;46318;52.716;6.444;2022-12-18T16:05:29;-1.10;99.90
60473;DHT22;46318;52.716;6.444;2022-12-18T16:07:56;-1.10;99.90
60473;DHT22;46318;52.716;6.444;2022-12-18T16:10:22;-1.10;99.90
60473;DHT22;46318;52.716;6.444;2022-12-18T16:12:48;-1.10;99.90
60473;DHT22;46318;52.716;6.444;2022-12-18T16:15:14;-1.10;99.90
60473;DHT22;46318;52.716;6.444;2022-12-18T16:17:41;-1.10;99.90
60473;DHT22;46318;52.716;6.444;2022-12-18T16:20:15;-1.10;99.90
60473;DHT22;46318;52.716;6.444;2022-12-18T16:22:46;-1.10;99.90
60473;DHT22;46318;52.716;6.444;2022-12-18T16:27:45;-1.10;99.90
60473;DHT22;46318;52.716;6.444;2022-12-18T16:30:15;-1.10;99.90
60473;DHT22;46318;52.716;6.444;2022-12-18T16:32:43;-1.10;99.90
60473;DHT22;46318;52.716;6.444;2022-12-18T16:35:12;-1.10;99.90
60473;DHT22;46318;52.716;6.444;2022-12-18T16:37:39;-1.10;99.90
60473;DHT22;46318;52.716;6.444;2022-12-18T16:40:07;-1.10;99.90
60473;DHT22;46318;52.716;6.444;2022-12-18T16:42:36;-1.10;99.90
60473;DHT22;46318;52.716;6.444;2022-12-18T16:45:02;-1.10;99.90
60473;DHT22;46318;52.716;6.444;2022-12-18T16:47:29;-1.10;99.90
60473;DHT22;46318;52.716;6.444;2022-12-18T16:49:55;-1.10;99.90
60473;DHT22;46318;52.716;6.444;2022-12-18T16:52:21;-1.10;99.90
60473;DHT22;46318;52.716;6.444;2022-12-18T16:54:47;-1.10;99.90
60473;DHT22;46318;52.716;6.444;2022-12-18T16:57:15;-1.10;99.90
60473;DHT22;46318;52.716;6.444;2022-12-18T16:59:42;-1.10;99.90
60473;DHT22;46318;52.716;6.444;2022-12-18T17:02:12;-1.10;99.90
60473;DHT22;46318;52.716;6.444;2022-12-18T17:04:40;-1.10;99.90
60473;DHT22;46318;52.716;6.444;2022-12-18T17:07:07;-1.10;99.90
60473;DHT22;46318;52.716;6.444;2022-12-18T17:09:34;-1.10;99.90
60473;DHT22;46318;52.716;6.444;2022-12-18T17:12:00;-1.00;99.90
60473;DHT22;46318;52.716;6.444;2022-12-18T17:14:30;-1.00;99.90
60473;DHT22;46318;52.716;6.444;2022-12-18T17:16:58;-1.00;99.90
60473;DHT22;46318;52.716;6.444;2022-12-18T17:19:27;-1.00;99.90
60473;DHT22;46318;52.716;6.444;2022-12-18T17:21:59;-1.00;99.90
60473;DHT22;46318;52.716;6.444;2022-12-18T17:24:25;-1.00;99.90
60473;DHT22;46318;52.716;6.444;2022-12-18T17:26:50;-1.00;99.90
60473;DHT22;46318;52.716;6.444;2022-12-18T17:29:17;-1.00;99.90
60473;DHT22;46318;52.716;6.444;2022-12-18T17:31:44;-1.00;99.90
60473;DHT22;46318;52.716;6.444;2022-12-18T17:34:11;-1.00;99.90
60473;DHT22;46318;52.716;6.444;2022-12-18T17:36:40;-1.00;99.90
60473;DHT22;46318;52.716;6.444;2022-12-18T17:39:06;-1.00;99.90
60473;DHT22;46318;52.716;6.444;2022-12-18T17:41:32;-1.00;99.90
60473;DHT22;46318;52.716;6.444;2022-12-18T17:44:02;-1.00;99.90
60473;DHT22;46318;52.716;6.444;2022-12-18T17:46:30;-1.00;99.90
60473;DHT22;46318;52.716;6.444;2022-12-18T17:48:59;-0.90;99.90
60473;DHT22;46318;52.716;6.444;2022-12-18T17:51:26;-0.90;99.90
60473;DHT22;46318;52.716;6.444;2022-12-18T17:53:52;-0.90;99.90
60473;DHT22;46318;52.716;6.444;2022-12-18T17:56:19;-0.90;99.90
60473;DHT22;46318;52.716;6.444;2022-12-18T17:58:46;-0.90;99.90
60473;DHT22;46318;52.716;6.444;2022-12-18T18:01:19;-0.90;99.90
60473;DHT22;46318;52.716;6.444;2022-12-18T18:03:47;-0.90;99.90